createdAt,value
2018-04-18T00:00:14.311Z,73.96
2018-04-18T00:00:54.868Z,74.34
2018-04-18T00:01:35.448Z,74.24
2018-04-18T00:02:16.032Z,73.96
2018-04-18T00:02:56.592Z,74.53
2018-04-18T00:03:37.178Z,74.73
2018-04-18T00:04:17.739Z,74.44
2018-04-18T00:04:58.311Z,74.53
2018-04-18T00:05:38.904Z,74.44
2018-04-18T00:06:19.464Z,74.05
2018-04-18T00:07:00.032Z,74.15
2018-04-18T00:07:40.593Z,74.05
2018-04-18T00:08:21.159Z,74.53
2018-04-18T00:09:01.733Z,74.73
2018-04-18T00:10:59.651Z,74.73
2018-04-18T00:11:40.206Z,74.34
2018-04-18T00:12:20.768Z,74.53
2018-04-18T00:13:01.316Z,74.53
2018-04-18T00:13:41.891Z,75.01
2018-04-18T00:14:22.444Z,74.82
2018-04-18T00:15:02.993Z,75.1
2018-04-18T00:15:43.560Z,75.1
2018-04-18T00:16:24.117Z,74.82
2018-04-18T00:17:04.696Z,74.82
2018-04-18T00:17:45.215Z,74.91
2018-04-18T00:18:25.773Z,75.01
2018-04-18T00:19:06.347Z,74.73
2018-04-18T00:19:46.898Z,74.63
2018-04-18T00:20:27.455Z,75.01
2018-04-18T00:21:08.020Z,74.91
2018-04-18T00:21:48.574Z,75.1
2018-04-18T00:22:29.131Z,75.3
2018-04-18T00:23:09.668Z,75.49
2018-04-18T00:23:50.233Z,75.39
2018-04-18T00:24:30.795Z,75.39
2018-04-18T00:25:11.356Z,75.87
2018-04-18T00:25:54.879Z,75.59
2018-04-18T00:26:35.433Z,75.39
2018-04-18T00:27:16.008Z,75.49
2018-04-18T00:27:56.584Z,75.59
2018-04-18T00:28:37.170Z,75.2
2018-04-18T00:29:17.747Z,75.87
2018-04-18T00:29:58.297Z,75.39
2018-04-18T00:30:38.899Z,75.39
2018-04-18T00:31:19.516Z,75.39
2018-04-18T00:32:00.096Z,75.49
2018-04-18T00:32:40.698Z,76.35
2018-04-18T00:33:21.273Z,75.68
2018-04-18T00:34:01.846Z,75.49
2018-04-18T00:34:42.402Z,75.39
2018-04-18T00:35:22.972Z,75.68
2018-04-18T00:36:03.563Z,75.49
2018-04-18T00:36:44.181Z,76.35
2018-04-18T00:37:24.744Z,76.35
2018-04-18T00:38:05.298Z,75.78
2018-04-18T00:38:45.850Z,75.49
2018-04-18T00:39:26.413Z,75.2
2018-04-18T00:40:06.978Z,75.2
2018-04-18T00:40:47.577Z,75.78
2018-04-18T00:41:28.154Z,76.16
2018-04-18T00:42:08.715Z,76.16
2018-04-18T00:42:49.344Z,75.64
2018-04-18T00:43:29.933Z,76.31
2018-04-18T00:44:10.538Z,76.31
2018-04-18T00:44:51.108Z,76.31
2018-04-18T00:45:31.679Z,75.83
2018-04-18T00:46:12.229Z,75.83
2018-04-18T00:46:52.802Z,75.83
2018-04-18T00:47:33.349Z,75.74
2018-04-18T00:48:13.909Z,76.06
2018-04-18T00:48:54.479Z,76.21
2018-04-18T00:49:35.079Z,76.12
2018-04-18T00:50:15.653Z,75.93
2018-04-18T00:50:56.212Z,76.31
2018-04-18T00:51:36.777Z,76.03
2018-04-18T00:52:17.338Z,75.93
2018-04-18T00:52:57.909Z,75.93
2018-04-18T00:53:38.504Z,76.03
2018-04-18T00:54:19.057Z,76.21
2018-04-18T00:54:59.623Z,76.21
2018-04-18T00:55:40.236Z,75.93
2018-04-18T00:56:20.799Z,76.4
2018-04-18T00:57:01.361Z,76.5
2018-04-18T00:57:41.964Z,76.5
2018-04-18T00:58:22.520Z,76.5
2018-04-18T00:59:03.148Z,76.12
2018-04-18T00:59:43.726Z,76.31
2018-04-18T01:00:24.318Z,76.79
2018-04-18T01:01:04.869Z,76.88
2018-04-18T01:01:45.449Z,76.69
2018-04-18T01:02:26.019Z,76.69
2018-04-18T01:03:06.581Z,76.88
2018-04-18T01:03:47.132Z,76.88
2018-04-18T01:04:27.697Z,77.17
2018-04-18T01:05:08.280Z,77.26
2018-04-18T01:05:48.847Z,76.98
2018-04-18T01:06:29.404Z,76.98
2018-04-18T01:07:09.972Z,77.26
2018-04-18T01:07:50.535Z,76.88
2018-04-18T01:08:31.127Z,77.26
2018-04-18T01:09:11.689Z,76.98
2018-04-18T01:09:52.259Z,78.03
2018-04-18T01:10:32.827Z,76.98
2018-04-18T01:11:13.417Z,77.26
2018-04-18T01:11:53.957Z,77.17
2018-04-18T01:12:34.522Z,77.26
2018-04-18T01:13:15.100Z,76.98
2018-04-18T01:13:55.683Z,77.26
2018-04-18T01:14:36.255Z,77.17
2018-04-18T01:15:16.821Z,77.17
2018-04-18T01:15:57.382Z,77.17
2018-04-18T01:16:37.944Z,77.65
2018-04-18T01:17:18.497Z,77.74
2018-04-18T01:17:59.121Z,77.36
2018-04-18T01:18:39.666Z,77.74
2018-04-18T01:19:20.221Z,77.65
2018-04-18T01:20:00.801Z,77.65
2018-04-18T01:20:41.363Z,77.51
2018-04-18T01:21:21.923Z,77.65
2018-04-18T01:22:02.504Z,77.74
2018-04-18T01:22:43.086Z,78.31
2018-04-18T01:23:23.645Z,78.22
2018-04-18T01:24:04.232Z,78.31
2018-04-18T01:24:44.785Z,77.84
2018-04-18T01:25:25.355Z,78.41
2018-04-18T01:26:05.912Z,78.41
2018-04-18T01:26:46.487Z,78.51
2018-04-18T01:27:27.066Z,78.41
2018-04-18T01:28:07.626Z,78.22
2018-04-18T01:28:48.186Z,78.89
2018-04-18T01:29:28.744Z,79.08
2018-04-18T01:30:09.321Z,78.79
2018-04-18T01:30:49.877Z,78.89
2018-04-18T01:31:30.476Z,78.89
2018-04-18T01:32:11.031Z,79.08
2018-04-18T01:32:51.590Z,78.6
2018-04-18T01:33:32.148Z,78.6
2018-04-18T01:34:12.704Z,79.08
2018-04-18T01:34:53.266Z,78.99
2018-04-18T01:35:33.840Z,78.99
2018-04-18T01:36:14.420Z,78.75
2018-04-18T01:36:54.977Z,78.99
2018-04-18T01:37:35.528Z,78.99
2018-04-18T01:38:16.087Z,79.27
2018-04-18T01:38:56.639Z,79.08
2018-04-18T01:39:37.206Z,79.33
2018-04-18T01:40:17.836Z,79.46
2018-04-18T01:40:58.479Z,79.36
2018-04-18T01:41:39.062Z,79.36
2018-04-18T01:42:19.618Z,79.43
2018-04-18T01:43:00.221Z,79.27
2018-04-18T01:43:40.794Z,79.46
2018-04-18T01:44:21.352Z,79.43
2018-04-18T01:45:01.917Z,79.46
2018-04-18T01:45:42.495Z,79.17
2018-04-18T01:46:23.054Z,79.36
2018-04-18T01:47:03.614Z,79.14
2018-04-18T01:47:44.165Z,79.33
2018-04-18T01:48:24.730Z,79.85
2018-04-18T01:49:05.281Z,79.04
2018-04-18T01:49:45.861Z,79.08
2018-04-18T01:50:26.424Z,79.17
2018-04-18T01:51:06.987Z,79.14
2018-04-18T01:51:47.564Z,79.14
2018-04-18T01:52:28.139Z,79.27
2018-04-18T01:53:08.732Z,79.27
2018-04-18T01:53:49.320Z,79.61
2018-04-18T01:54:29.882Z,79.33
2018-04-18T01:55:10.454Z,79.46
2018-04-18T01:55:51.015Z,79.52
2018-04-18T01:56:31.573Z,79.33
2018-04-18T01:57:12.137Z,79.14
2018-04-18T01:57:52.737Z,78.94
2018-04-18T01:58:33.306Z,79.33
2018-04-18T01:59:13.859Z,79.52
2018-04-18T01:59:54.508Z,79.33
2018-04-18T02:00:35.076Z,79.33
2018-04-18T02:01:15.660Z,79.61
2018-04-18T02:01:56.233Z,79.8
2018-04-18T02:02:36.787Z,79.23
2018-04-18T02:03:17.348Z,79.52
2018-04-18T02:03:57.896Z,79.52
2018-04-18T02:04:38.459Z,79.61
2018-04-18T02:05:19.073Z,79.52
2018-04-18T02:05:59.642Z,79.8
2018-04-18T02:06:40.227Z,79.71
2018-04-18T02:07:20.772Z,79.61
2018-04-18T02:08:01.349Z,79.43
2018-04-18T02:08:41.960Z,80.09
2018-04-18T02:09:22.518Z,79.8
2018-04-18T02:10:03.104Z,79.9
2018-04-18T02:10:43.668Z,79.9
2018-04-18T02:11:24.233Z,79.99
2018-04-18T02:12:04.787Z,79.9
2018-04-18T02:12:45.372Z,80.09
2018-04-18T02:13:25.969Z,79.61
2018-04-18T02:14:06.570Z,79.71
2018-04-18T02:14:47.169Z,80.09
2018-04-18T02:15:27.766Z,79.61
2018-04-18T02:16:08.348Z,79.61
2018-04-18T02:16:48.911Z,79.8
2018-04-18T02:17:29.514Z,80.09
2018-04-18T02:18:10.105Z,79.71
2018-04-18T02:18:50.683Z,79.9
2018-04-18T02:19:31.250Z,79.8
2018-04-18T02:20:11.817Z,79.71
2018-04-18T02:20:52.374Z,80.47
2018-04-18T02:21:33.007Z,80.57
2018-04-18T02:22:13.563Z,80.28
2018-04-18T02:22:54.165Z,80.38
2018-04-18T02:23:34.760Z,80.38
2018-04-18T02:24:15.319Z,80.38
2018-04-18T02:24:55.907Z,80.38
2018-04-18T02:25:36.483Z,80.38
2018-04-18T02:26:17.052Z,80.47
2018-04-18T02:26:57.608Z,80.66
2018-04-18T02:27:38.185Z,80.76
2018-04-18T02:28:18.761Z,80.95
2018-04-18T02:28:59.324Z,80.76
2018-04-18T02:29:39.890Z,80.66
2018-04-18T02:30:20.448Z,80.66
2018-04-18T02:31:01.010Z,80.66
2018-04-18T02:31:41.565Z,80.76
2018-04-18T02:32:22.150Z,80.38
2018-04-18T02:33:02.705Z,80.66
2018-04-18T02:33:43.262Z,81.14
2018-04-18T02:34:23.850Z,80.95
2018-04-18T02:35:04.408Z,81.04
2018-04-18T02:35:44.983Z,81.43
2018-04-18T02:36:25.551Z,81.33
2018-04-18T02:37:06.139Z,81.33
2018-04-18T02:37:46.703Z,81.33
2018-04-18T02:38:27.262Z,81.2
2018-04-18T02:39:07.829Z,81.29
2018-04-18T02:39:48.388Z,81.14
2018-04-18T02:40:28.996Z,81.2
2018-04-18T02:41:09.545Z,81.14
2018-04-18T02:41:50.112Z,81.43
2018-04-18T02:42:30.666Z,81.38
2018-04-18T02:43:11.233Z,81.38
2018-04-18T02:43:51.785Z,81.52
2018-04-18T02:44:32.343Z,81.48
2018-04-18T02:45:12.913Z,81.43
2018-04-18T02:45:53.481Z,81.48
2018-04-18T02:46:34.035Z,81.58
2018-04-18T02:47:14.626Z,81.9
2018-04-18T02:47:55.197Z,81.86
2018-04-18T02:48:35.772Z,81.86
2018-04-18T02:49:16.368Z,81.9
2018-04-18T02:49:57.053Z,81.71
2018-04-18T02:50:37.629Z,81.96
2018-04-18T02:51:18.190Z,81.77
2018-04-18T02:51:58.765Z,81.58
2018-04-18T02:52:39.366Z,81.96
2018-04-18T02:53:19.921Z,81.96
2018-04-18T02:54:00.505Z,81.86
2018-04-18T02:54:41.086Z,82.15
2018-04-18T02:55:21.650Z,82.06
2018-04-18T02:56:02.204Z,82.15
2018-04-18T02:56:42.797Z,82.06
2018-04-18T02:57:23.377Z,82.15
2018-04-18T02:58:03.932Z,82.15
2018-04-18T02:58:44.503Z,82.15
2018-04-18T02:59:25.103Z,82.24
2018-04-18T03:00:05.659Z,82.15
2018-04-18T03:00:46.221Z,82.43
2018-04-18T03:01:26.790Z,82.53
2018-04-18T03:02:07.362Z,82.15
2018-04-18T03:02:48.013Z,82.06
2018-04-18T03:03:28.578Z,81.96
2018-04-18T03:04:09.146Z,82.15
2018-04-18T03:04:49.724Z,82.15
2018-04-18T03:05:30.286Z,82.24
2018-04-18T03:06:10.837Z,82.15
2018-04-18T03:06:51.422Z,82.72
2018-04-18T03:07:32.009Z,82.53
2018-04-18T03:08:12.569Z,81.86
2018-04-18T03:08:53.123Z,82.15
2018-04-18T03:09:33.686Z,81.96
2018-04-18T03:10:14.288Z,82.72
2018-04-18T03:10:54.821Z,82.34
2018-04-18T03:11:35.420Z,82.24
2018-04-18T03:12:15.982Z,82.72
2018-04-18T03:12:56.584Z,82.43
2018-04-18T03:13:37.148Z,82.53
2018-04-18T03:14:17.734Z,82.53
2018-04-18T03:14:58.291Z,82.53
2018-04-18T03:15:38.843Z,82.43
2018-04-18T03:16:19.424Z,82.53
2018-04-18T03:16:59.979Z,82.43
2018-04-18T03:17:40.541Z,82.82
2018-04-18T03:18:21.156Z,82.53
2018-04-18T03:19:01.724Z,82.43
2018-04-18T03:19:42.320Z,82.53
2018-04-18T03:20:22.904Z,82.43
2018-04-18T03:21:03.455Z,82.34
2018-04-18T03:21:44.012Z,82.53
2018-04-18T03:22:24.592Z,82.53
2018-04-18T03:23:05.161Z,82.63
2018-04-18T03:23:45.827Z,82.43
2018-04-18T03:24:26.389Z,82.63
2018-04-18T03:25:06.951Z,82.43
2018-04-18T03:25:47.524Z,82.43
2018-04-18T03:26:28.086Z,82.34
2018-04-18T03:27:08.646Z,82.72
2018-04-18T03:27:49.207Z,82.06
2018-04-18T03:28:29.771Z,82.24
2018-04-18T03:29:10.338Z,82.15
2018-04-18T03:29:50.934Z,82.06
2018-04-18T03:30:31.525Z,82.34
2018-04-18T03:31:12.089Z,82.43
2018-04-18T03:31:52.825Z,82.34
2018-04-18T03:32:33.422Z,82.43
2018-04-18T03:33:13.991Z,82.34
2018-04-18T03:33:54.561Z,82.53
2018-04-18T03:34:35.138Z,82.15
2018-04-18T03:35:15.711Z,82.15
2018-04-18T03:35:56.293Z,82.06
2018-04-18T03:36:36.847Z,81.96
2018-04-18T03:37:17.420Z,82.06
2018-04-18T03:37:57.978Z,81.67
2018-04-18T03:38:38.537Z,82.15
2018-04-18T03:39:19.115Z,81.67
2018-04-18T03:39:59.716Z,82.06
2018-04-18T03:40:40.306Z,82.24
2018-04-18T03:41:20.957Z,82.43
2018-04-18T03:42:01.580Z,82.15
2018-04-18T03:42:42.175Z,82.53
2018-04-18T03:43:22.737Z,82.53
2018-04-18T03:44:03.302Z,82.63
2018-04-18T03:44:43.852Z,82.43
2018-04-18T03:45:24.419Z,82.34
2018-04-18T03:46:05.019Z,82.63
2018-04-18T03:46:45.595Z,82.43
2018-04-18T03:47:26.244Z,82.34
2018-04-18T03:48:06.803Z,82.53
2018-04-18T03:48:47.374Z,82.91
2018-04-18T03:49:27.955Z,82.63
2018-04-18T03:50:08.522Z,83.2
2018-04-18T03:50:49.089Z,82.63
2018-04-18T03:51:29.656Z,82.43
2018-04-18T03:52:10.257Z,82.53
2018-04-18T03:52:50.898Z,83.01
2018-04-18T03:53:31.496Z,82.72
2018-04-18T03:54:12.083Z,82.63
2018-04-18T03:54:52.703Z,82.53
2018-04-18T03:55:33.268Z,83.11
2018-04-18T03:56:13.840Z,82.53
2018-04-18T03:56:54.399Z,82.72
2018-04-18T03:57:35.056Z,82.53
2018-04-18T03:58:15.624Z,83.11
2018-04-18T03:58:56.212Z,83.01
2018-04-18T03:59:36.760Z,82.82
2018-04-18T04:00:17.330Z,82.91
2018-04-18T04:00:57.910Z,82.63
2018-04-18T04:01:38.473Z,82.82
2018-04-18T04:02:19.063Z,83.2
2018-04-18T04:02:59.631Z,83.01
2018-04-18T04:03:40.186Z,82.53
2018-04-18T04:04:20.753Z,82.82
2018-04-18T04:05:01.387Z,82.87
2018-04-18T04:05:41.956Z,83.25
2018-04-18T04:06:22.533Z,82.63
2018-04-18T04:07:03.080Z,82.43
2018-04-18T04:07:43.652Z,82.91
2018-04-18T04:08:24.205Z,82.63
2018-04-18T04:09:04.805Z,82.63
2018-04-18T04:09:45.375Z,82.87
2018-04-18T04:10:25.998Z,82.82
2018-04-18T04:11:06.507Z,82.78
2018-04-18T04:11:47.075Z,82.63
2018-04-18T04:12:27.676Z,82.63
2018-04-18T04:13:08.238Z,82.72
2018-04-18T04:13:48.790Z,82.72
2018-04-18T04:14:29.379Z,82.53
2018-04-18T04:15:09.945Z,82.72
2018-04-18T04:15:50.506Z,82.63
2018-04-18T04:16:31.097Z,82.72
2018-04-18T04:17:11.648Z,83.2
2018-04-18T04:17:52.295Z,83.2
2018-04-18T04:18:32.881Z,82.53
2018-04-18T04:19:13.444Z,82.43
2018-04-18T04:19:54.003Z,83.48
2018-04-18T04:20:34.641Z,83.96
2018-04-18T04:21:15.198Z,83.87
2018-04-18T04:21:55.839Z,83.48
2018-04-18T04:22:36.414Z,82.82
2018-04-18T04:23:16.967Z,82.72
2018-04-18T04:23:57.547Z,82.67
2018-04-18T04:24:38.126Z,82.67
2018-04-18T04:25:18.698Z,82
2018-04-18T04:25:59.285Z,81.33
2018-04-18T04:26:39.851Z,81.43
2018-04-18T04:27:20.407Z,80.57
2018-04-18T04:28:00.997Z,80.85
2018-04-18T04:28:41.556Z,80.38
2018-04-18T04:29:22.138Z,79.85
2018-04-18T04:30:02.727Z,79.65
2018-04-18T04:30:43.292Z,79.27
2018-04-18T04:31:23.933Z,78.79
2018-04-18T04:32:04.517Z,78.79
2018-04-18T04:32:45.083Z,78.51
2018-04-18T04:33:25.653Z,78.6
2018-04-18T04:34:06.285Z,78.41
2018-04-18T04:34:46.907Z,78.22
2018-04-18T04:35:27.467Z,78.03
2018-04-18T04:36:08.038Z,78.13
2018-04-18T04:36:48.589Z,78.03
2018-04-18T04:37:29.146Z,78.07
2018-04-18T04:38:09.722Z,78.07
2018-04-18T04:38:50.316Z,78.07
2018-04-18T04:39:30.958Z,77.69
2018-04-18T04:40:11.600Z,77.69
2018-04-18T04:40:52.186Z,77.4
2018-04-18T04:41:32.744Z,77.11
2018-04-18T04:42:13.314Z,77.11
2018-04-18T04:42:53.870Z,76.86
2018-04-18T04:43:34.430Z,76.1
2018-04-18T04:44:15.023Z,76
2018-04-18T04:44:55.671Z,76
2018-04-18T04:45:36.153Z,76
2018-04-18T04:46:16.750Z,75.52
2018-04-18T04:46:57.349Z,76.2
2018-04-18T04:47:37.907Z,75.52
2018-04-18T04:48:18.559Z,74.95
2018-04-18T04:48:59.140Z,75.24
2018-04-18T04:49:39.717Z,74.76
2018-04-18T04:50:20.285Z,75.14
2018-04-18T04:51:00.854Z,74.85
2018-04-18T04:51:41.417Z,74.66
2018-04-18T04:52:21.981Z,74.95
2018-04-18T04:53:02.535Z,74.57
2018-04-18T04:53:43.090Z,74.38
2018-04-18T04:54:23.667Z,73.9
2018-04-18T04:55:04.250Z,73.61
2018-04-18T04:55:44.855Z,73.14
2018-04-18T04:56:25.498Z,72.75
2018-04-18T04:57:06.036Z,73.14
2018-04-18T04:57:46.613Z,73.14
2018-04-18T04:58:27.261Z,73.8
2018-04-18T04:59:07.898Z,73.67
2018-04-18T04:59:48.475Z,74.05
2018-04-18T05:00:29.049Z,74.53
2018-04-18T05:01:09.782Z,75.2
2018-04-18T05:01:51.278Z,75.2
2018-04-18T05:02:32.268Z,76.03
2018-04-18T05:03:12.795Z,76.21
2018-04-18T05:03:53.494Z,76.5
2018-04-18T05:04:34.091Z,77.26
2018-04-18T05:05:14.672Z,77.36
2018-04-18T05:05:55.296Z,78.22
2018-04-18T05:06:35.858Z,79.36
2018-04-18T05:07:16.857Z,79.36
2018-04-18T05:07:57.716Z,78.99
2018-04-18T05:08:38.549Z,78.41
2018-04-18T05:09:19.240Z,78.03
2018-04-18T05:09:59.809Z,78.13
2018-04-18T05:10:40.486Z,78.6
2018-04-18T05:11:21.048Z,78.31
2018-04-18T05:12:01.796Z,78.89
2018-04-18T05:12:42.608Z,78.89
2018-04-18T05:13:23.261Z,78.6
2018-04-18T05:14:03.843Z,79.56
2018-04-18T05:14:44.404Z,79.17
2018-04-18T05:15:24.961Z,79.46
2018-04-18T05:16:05.548Z,79.65
2018-04-18T05:16:46.144Z,79.94
2018-04-18T05:17:26.743Z,79.52
2018-04-18T05:18:07.322Z,80.09
2018-04-18T05:18:47.927Z,80.47
2018-04-18T05:19:28.491Z,80.66
2018-04-18T05:20:09.101Z,80.76
2018-04-18T05:20:49.708Z,80.76
2018-04-18T05:21:30.278Z,81.43
2018-04-18T05:22:10.851Z,81.33
2018-04-18T05:22:51.408Z,81.43
2018-04-18T05:23:31.985Z,81.14
2018-04-18T05:24:12.577Z,81.43
2018-04-18T05:24:53.175Z,81.43
2018-04-18T05:25:33.798Z,82.09
2018-04-18T05:26:14.355Z,81.9
2018-04-18T05:26:54.958Z,81.71
2018-04-18T05:27:35.690Z,82
2018-04-18T05:28:16.266Z,82
2018-04-18T05:28:56.827Z,82.09
2018-04-18T05:29:38.260Z,81.9
2018-04-18T05:30:18.922Z,81.9
2018-04-18T05:30:59.541Z,82.48
2018-04-18T05:31:40.117Z,82.86
2018-04-18T05:32:20.680Z,82.9
2018-04-18T05:33:01.385Z,83.09
2018-04-18T05:33:41.966Z,82.52
2018-04-18T05:34:22.678Z,82.14
2018-04-18T05:35:03.253Z,81.56
2018-04-18T05:35:43.825Z,81.41
2018-04-18T05:36:24.399Z,80.84
2018-04-18T05:37:04.965Z,80.07
2018-04-18T05:37:45.572Z,79.5
2018-04-18T05:38:26.130Z,79.31
2018-04-18T05:39:06.687Z,78.78
2018-04-18T05:39:47.243Z,78.58
2018-04-18T05:40:27.799Z,77.63
2018-04-18T05:41:08.381Z,77.53
2018-04-18T05:41:48.953Z,77.34
2018-04-18T05:42:29.515Z,77.06
2018-04-18T05:43:10.125Z,76.77
2018-04-18T05:43:50.669Z,76
2018-04-18T05:44:31.250Z,75.95
2018-04-18T05:45:11.829Z,75.56
2018-04-18T05:45:52.501Z,75.56
2018-04-18T05:46:33.097Z,75.18
2018-04-18T05:47:13.690Z,75.09
2018-04-18T05:47:54.248Z,74.8
2018-04-18T05:48:34.867Z,74.22
2018-04-18T05:49:15.474Z,74.22
2018-04-18T05:49:56.037Z,74.41
2018-04-18T05:50:36.614Z,73.55
2018-04-18T05:51:17.204Z,73.65
2018-04-18T05:51:57.779Z,74.04
2018-04-18T05:52:38.356Z,74.22
2018-04-18T05:53:18.930Z,74.22
2018-04-18T05:53:59.531Z,73.94
2018-04-18T05:54:40.098Z,74.22
2018-04-18T05:55:20.722Z,73.75
2018-04-18T05:56:01.237Z,73.36
2018-04-18T05:56:41.815Z,73.3
2018-04-18T05:57:22.379Z,73.21
2018-04-18T05:58:03.007Z,73.08
2018-04-18T05:58:43.594Z,73.21
2018-04-18T05:59:24.182Z,73.11
2018-04-18T06:00:04.746Z,72.73
2018-04-18T06:00:45.312Z,73.3
2018-04-18T06:01:25.942Z,72.73
2018-04-18T06:02:06.514Z,72.83
2018-04-18T06:02:47.079Z,73.11
2018-04-18T06:03:27.677Z,72.73
2018-04-18T06:04:08.240Z,72.73
2018-04-18T06:04:48.841Z,72.83
2018-04-18T06:05:29.397Z,72.25
2018-04-18T06:06:10.160Z,72.54
2018-04-18T06:06:50.836Z,72.34
2018-04-18T06:07:31.396Z,72.25
2018-04-18T06:08:11.964Z,72.16
2018-04-18T06:08:52.529Z,71.87
2018-04-18T06:09:33.081Z,71.97
2018-04-18T06:10:14.228Z,71.81
2018-04-18T06:10:54.895Z,71.81
2018-04-18T06:11:35.496Z,71.42
2018-04-18T06:12:16.149Z,71.42
2018-04-18T06:12:56.998Z,71.3
2018-04-18T06:13:37.696Z,71.23
2018-04-18T06:14:18.258Z,71.23
2018-04-18T06:14:58.898Z,71.42
2018-04-18T06:15:39.493Z,71.23
2018-04-18T06:16:20.859Z,71.23
2018-04-18T06:17:01.517Z,71.23
2018-04-18T06:17:42.075Z,71.33
2018-04-18T06:18:22.688Z,71.52
2018-04-18T06:19:03.511Z,71.04
2018-04-18T06:19:44.132Z,71.04
2018-04-18T06:20:24.757Z,71.04
2018-04-18T06:21:06.393Z,71.23
2018-04-18T06:21:46.992Z,70.76
2018-04-18T06:22:27.608Z,70.66
2018-04-18T06:23:08.376Z,70.47
2018-04-18T06:23:49.066Z,70.47
2018-04-18T06:24:29.696Z,69.89
2018-04-18T06:25:11.227Z,69.83
2018-04-18T06:25:51.786Z,70.03
2018-04-18T06:26:32.349Z,69.17
2018-04-18T06:27:13.032Z,68.59
2018-04-18T06:27:53.541Z,68.05
2018-04-18T06:28:34.107Z,68.21
2018-04-18T06:29:14.717Z,67.85
2018-04-18T06:29:55.287Z,67.57
2018-04-18T06:30:35.843Z,66.99
2018-04-18T06:31:16.412Z,66.74
2018-04-18T06:31:56.974Z,66.35
2018-04-18T06:32:37.628Z,65.88
2018-04-18T06:33:18.204Z,65.97
2018-04-18T06:33:58.824Z,65.11
2018-04-18T06:34:39.425Z,64.85
2018-04-18T06:35:20.010Z,64.18
2018-04-18T06:36:00.597Z,63.79
2018-04-18T06:36:41.251Z,63.6
2018-04-18T06:37:21.818Z,62.77
2018-04-18T06:38:02.575Z,62.87
2018-04-18T06:38:43.120Z,62.39
2018-04-18T06:39:23.716Z,62.1
2018-04-18T06:40:04.704Z,62.48
2018-04-18T06:40:45.248Z,62.19
2018-04-18T06:41:25.836Z,61.81
2018-04-18T06:42:06.392Z,61.14
2018-04-18T06:42:47.006Z,61.08
2018-04-18T06:43:27.702Z,60.69
2018-04-18T06:44:08.284Z,60.21
2018-04-18T06:44:48.855Z,59.25
2018-04-18T06:45:29.423Z,59.25
2018-04-18T06:46:10.026Z,59.64
2018-04-18T06:46:50.572Z,59.73
2018-04-18T06:47:31.149Z,59.34
2018-04-18T06:48:11.829Z,58.99
2018-04-18T06:48:52.470Z,58.96
2018-04-18T06:49:33.095Z,59.06
2018-04-18T06:50:13.670Z,59.19
2018-04-18T06:50:54.260Z,59.09
2018-04-18T06:51:34.840Z,58.7
2018-04-18T06:52:15.545Z,58.42
2018-04-18T06:52:56.174Z,58.51
2018-04-18T06:53:36.823Z,58.61
2018-04-18T06:54:17.536Z,58.03
2018-04-18T06:54:58.104Z,57.87
2018-04-18T06:55:38.705Z,57.77
2018-04-18T06:56:19.281Z,57.29
2018-04-18T06:56:59.847Z,57.39
2018-04-18T06:57:40.537Z,57.29
2018-04-18T06:58:21.089Z,56.81
2018-04-18T06:59:01.663Z,56.04
2018-04-18T06:59:42.256Z,56.23
2018-04-18T07:00:22.824Z,56.16
2018-04-18T07:01:03.477Z,55.3
2018-04-18T07:01:44.112Z,55.11
2018-04-18T07:02:24.704Z,54.72
2018-04-18T07:03:05.366Z,55.01
2018-04-18T07:03:45.916Z,55.2
2018-04-18T07:04:26.505Z,55.11
2018-04-18T07:05:07.075Z,55.01
2018-04-18T07:05:47.627Z,54.91
2018-04-18T07:06:28.218Z,54.82
2018-04-18T07:07:08.757Z,54.63
2018-04-18T07:07:49.335Z,54.34
2018-04-18T07:08:29.944Z,54.46
2018-04-18T07:09:10.581Z,53.59
2018-04-18T07:09:51.155Z,53.47
2018-04-18T07:10:31.726Z,53.78
2018-04-18T07:11:12.374Z,54.17
2018-04-18T07:11:52.859Z,54.36
2018-04-18T07:12:33.442Z,54.17
2018-04-18T07:13:14.036Z,54.36
2018-04-18T07:13:54.608Z,53.59
2018-04-18T07:14:35.211Z,53.5
2018-04-18T07:15:15.793Z,53.21
2018-04-18T07:15:56.365Z,52.73
2018-04-18T07:16:36.955Z,52.63
2018-04-18T07:17:17.568Z,52.54
2018-04-18T07:17:58.144Z,52.47
2018-04-18T07:18:38.739Z,52.27
2018-04-18T07:19:19.370Z,52.27
2018-04-18T07:19:59.868Z,51.41
2018-04-18T07:20:40.471Z,51.6
2018-04-18T07:21:21.127Z,50.93
2018-04-18T07:22:01.687Z,51.31
2018-04-18T07:22:42.302Z,51.5
2018-04-18T07:23:22.967Z,51.41
2018-04-18T07:24:03.490Z,50.63
2018-04-18T07:24:44.108Z,50.63
2018-04-18T07:25:24.959Z,50.47
2018-04-18T07:26:05.554Z,50.73
2018-04-18T07:26:46.126Z,50.76
2018-04-18T07:27:26.726Z,50.37
2018-04-18T07:28:07.343Z,50.37
2018-04-18T07:28:47.929Z,50.76
2018-04-18T07:29:28.490Z,50.47
2018-04-18T07:30:09.119Z,50.47
2018-04-18T07:30:49.700Z,50.47
2018-04-18T07:31:30.332Z,50.37
2018-04-18T07:32:10.914Z,50.59
2018-04-18T07:32:51.492Z,49.7
2018-04-18T07:33:32.056Z,49.63
2018-04-18T07:34:12.625Z,49.73
2018-04-18T07:34:53.203Z,49.24
2018-04-18T07:35:33.789Z,49.63
2018-04-18T07:36:14.365Z,49.05
2018-04-18T07:36:54.959Z,49.05
2018-04-18T07:37:35.544Z,48.95
2018-04-18T07:38:16.151Z,49.24
2018-04-18T07:38:56.728Z,49.24
2018-04-18T07:39:37.302Z,48.18
2018-04-18T07:40:17.909Z,48.21
2018-04-18T07:40:58.559Z,48.08
2018-04-18T07:41:39.157Z,48.49
2018-04-18T07:42:19.749Z,48.3
2018-04-18T07:43:00.344Z,47.82
2018-04-18T07:43:40.909Z,47.82
2018-04-18T07:44:21.478Z,47.82
2018-04-18T07:45:02.075Z,47.72
2018-04-18T07:45:42.656Z,47.72
2018-04-18T07:46:23.233Z,47.36
2018-04-18T07:47:03.807Z,47.14
2018-04-18T07:47:44.378Z,47.17
2018-04-18T07:48:25.028Z,46.97
2018-04-18T07:49:05.634Z,46.69
2018-04-18T07:49:46.227Z,46.11
2018-04-18T07:50:26.793Z,45.53
2018-04-18T07:51:07.390Z,44.18
2018-04-18T07:51:47.959Z,43.98
2018-04-18T07:52:28.556Z,44.27
2018-04-18T07:53:09.141Z,44.76
2018-04-18T07:53:49.753Z,44.85
2018-04-18T07:54:30.325Z,45.14
2018-04-18T07:55:10.893Z,45.79
2018-04-18T07:55:51.482Z,45.53
2018-04-18T07:56:32.051Z,45.89
2018-04-18T07:57:12.686Z,45.79
2018-04-18T07:57:53.259Z,44.83
2018-04-18T07:58:33.835Z,44.93
2018-04-18T07:59:14.421Z,45.12
2018-04-18T07:59:55.002Z,45.41
2018-04-18T08:00:35.589Z,45.31
2018-04-18T08:01:16.177Z,45.6
2018-04-18T08:01:56.802Z,45.89
2018-04-18T08:02:37.318Z,45.99
2018-04-18T08:03:17.907Z,45.51
2018-04-18T08:03:58.480Z,45.12
2018-04-18T08:04:39.069Z,45.39
2018-04-18T08:05:19.649Z,46.06
2018-04-18T08:06:00.238Z,46.56
2018-04-18T08:06:40.809Z,46.66
2018-04-18T08:07:21.392Z,46.66
2018-04-18T08:08:01.968Z,47.44
2018-04-18T08:08:42.545Z,47.63
2018-04-18T08:09:23.137Z,48.01
2018-04-18T08:10:03.731Z,46.18
2018-04-18T08:10:44.362Z,45.31
2018-04-18T08:11:25.834Z,45.21
2018-04-18T08:12:05.538Z,45.12
2018-04-18T08:12:46.107Z,45.99
2018-04-18T08:13:26.672Z,47.53
2018-04-18T08:14:07.265Z,46.47
2018-04-18T08:14:47.935Z,45.99
2018-04-18T08:15:28.640Z,45.79
2018-04-18T08:16:09.165Z,46.66
2018-04-18T08:16:49.754Z,47.44
2018-04-18T08:17:30.381Z,47.92
2018-04-18T08:18:10.957Z,47.72
2018-04-18T08:18:51.531Z,47.63
2018-04-18T08:19:32.103Z,46.95
2018-04-18T08:20:12.699Z,46.2
2018-04-18T08:20:53.290Z,44.93
2018-04-18T08:21:33.860Z,45.14
2018-04-18T08:22:14.503Z,45.12
2018-04-18T08:22:55.072Z,45.31
2018-04-18T08:23:35.654Z,45.79
2018-04-18T08:24:16.243Z,45.6
2018-04-18T08:24:56.805Z,46.08
2018-04-18T08:25:37.370Z,46.18
2018-04-18T08:26:17.949Z,46.56
2018-04-18T08:26:58.548Z,46.08
2018-04-18T08:27:39.124Z,45.6
2018-04-18T08:28:19.691Z,45.89
2018-04-18T08:29:00.245Z,46.08
2018-04-18T08:29:40.846Z,45.77
2018-04-18T08:30:21.453Z,45.79
2018-04-18T08:31:02.025Z,45.21
2018-04-18T08:31:42.590Z,45.79
2018-04-18T08:32:23.173Z,45.77
2018-04-18T08:33:03.736Z,46.18
2018-04-18T08:33:44.327Z,45.89
2018-04-18T08:34:24.892Z,45.6
2018-04-18T08:35:05.471Z,45.97
2018-04-18T08:35:46.055Z,45.87
2018-04-18T08:36:26.627Z,46.55
2018-04-18T08:37:07.194Z,47.31
2018-04-18T08:37:47.795Z,47.31
2018-04-18T08:38:28.349Z,46.83
2018-04-18T08:39:08.918Z,46.73
2018-04-18T08:39:49.474Z,46.45
2018-04-18T08:40:30.089Z,46.93
2018-04-18T08:41:10.659Z,46.93
2018-04-18T08:41:51.284Z,47.12
2018-04-18T08:42:31.849Z,47.7
2018-04-18T08:43:12.542Z,47.7
2018-04-18T08:43:53.127Z,47.89
2018-04-18T08:44:33.690Z,47.51
2018-04-18T08:45:14.281Z,47.8
2018-04-18T08:45:54.890Z,48.18